Nearby METAR Reports

 

KRYN - Tucson/Ryan Fld, Arizona, USA
Distance from station: SSW 16mi, 26km
Updated: Tue, 28-Jan-2020 7:45pm MST
NOT Current
Clear
Clear
 Wind from SW
Wind: SW 6 mph , 9 km/h
Temperature: 50°F , 10°C
Wind Chill: 48°F , 9°C
Dew Point: 30°F , -1°C
Humidity: 47%
Barometer: 30.08 inHg , 1018.6 hPa
Clouds: Clear
Visibility: 10 miles , 16 km
2020/01/29 02:45 KRYN 290245Z 22005KT 10SM CLR 10/M01 A3008 RMK LAST
KTUS - Tucson, Arizona, USA
Distance from station: SSE 18mi, 28km
Updated: Wed, 29-Jan-2020 4:53am MST
Clear
Clear
 Wind from SSW
Wind: SSW 6 mph , 9 km/h
Temperature: 39°F , 4°C
Wind Chill: 35°F , 2°C
Dew Point: 27°F , -3°C
Humidity: 61%
Barometer: 30.00 inHg , 1015.9 hPa
Clouds: Clear
Visibility: 10 miles , 16 km
2020/01/29 11:53 KTUS 291153Z 20005KT 10SM CLR 04/M03 A3000 RMK AO2 SLP141 T00391028 10067 20028 55002
 
KDMA - Davis/Tucson, Arizona, USA
Distance from station: SE 18mi, 29km
Updated: Wed, 29-Jan-2020 4:58am MST
Clear
Clear
 Wind from ESE
Wind: ESE 8 mph , 13 km/h
Temperature: 37°F , 3°C
Wind Chill: 31°F , -1°C
Dew Point: 28°F , -2°C
Humidity: 70%
Barometer: 29.98 inHg , 1015.2 hPa
Clouds: Clear
Visibility: 10 miles , 16 km
2020/01/29 11:58 KDMA 291158Z AUTO 12007KT 10SM CLR 03/M02 A2998 RMK AO2 SLP139 T00311020 10060 20029 55002 FZRANO $
KCGZ - Casa Granda, Arizona, USA
Distance from station: NW 57mi, 92km
Updated: Wed, 29-Jan-2020 4:56am MST
Clear
Clear
 Wind from calm
Wind: Calm
Temperature: 39°F , 4°C
Dew Point: 34°F , 1°C
Humidity: 81%
Barometer: 29.97 inHg , 1014.9 hPa
Clouds: Clear
Visibility: 10 miles , 16 km
2020/01/29 11:56 KCGZ 291156Z AUTO 00000KT 10SM CLR 04/01 A2997 RMK AO2 SLP147 T00440006 10089 20044 56012
 
KALK - Pioneer Airfield, Arizona, USA
Distance from station: SE 65mi, 104km
Updated: Wed, 29-Jan-2020 4:56am MST
Clear
Clear
 Wind from W
Wind: W 10 mph , 17 km/h
Temperature: 34°F , 1°C
Wind Chill: 26°F , -3°C
Dew Point: 21°F , -6°C
Humidity: 60%
Barometer: 30.00 inHg , 1015.9 hPa
Clouds: Clear
Visibility: 10 miles , 16 km
2020/01/29 11:56 KALK 291156Z AUTO 28009KT 10SM CLR 01/M06 A3000 RMK AO2 SLP110 T00111061 10072 20006 55010
KOLS - Nogales, Arizona, USA
Distance from station: S 67mi, 108km
Updated: Wed, 29-Jan-2020 4:54am MST
Clear
Clear
 Wind from E
Wind: E 5 mph , 7 km/h
Temperature: 36°F , 2°C
Wind Chill: 32°F , 0°C
Dew Point: 23°F , -5°C
Humidity: 60%
Barometer: 29.98 inHg , 1015.2 hPa
Clouds: Clear
Visibility: 10 miles , 16 km
2020/01/29 11:54 KOLS 291154Z AUTO 09004KT 10SM CLR 02/M05 A2998 RMK AO2 SLP122 T00221050 10044 20011 55010
 
KFHU - Fort Huachuca, Arizona, USA
Distance from station: SE 69mi, 110km
Updated: Wed, 29-Jan-2020 4:58am MST
Clear
Clear
 Wind from W
Wind: W 5 mph , 7 km/h
Temperature: 39°F , 4°C
Wind Chill: 35°F , 2°C
Dew Point: 23°F , -5°C
Humidity: 52%
Barometer: 29.99 inHg , 1015.6 hPa
Clouds: Clear
Visibility: 10 miles , 16 km
2020/01/29 11:58 KFHU 291158Z AUTO 26004KT 10SM CLR 04/M05 A2999 RMK AO2 SLP125 T00371049 10059 20020 57009
KIWA - Chandler/Mesa, Arizona, USA
Distance from station: NNW 73mi, 117km
Updated: Wed, 29-Jan-2020 4:50am MST
Partly cloudy
Partly cloudy
 Wind from ESE
Wind: ESE 5 mph , 7 km/h
Temperature: 43°F , 6°C
Wind Chill: 40°F , 4°C
Dew Point: 34°F , 1°C
Humidity: 71%
Barometer: 29.96 inHg , 1014.6 hPa
Clouds: Partly cloudy
Visibility: 10 miles , 16 km
Cloud details: Partly cloudy 20000 ft
2020/01/29 11:50 KIWA 291150Z 12004KT 10SM SCT200 06/01 A2996